Time;durP1;ratioP1;P1;durP2;ratioP2;P2;SDS_P1;SDS_P2;PMS_P1;PMS_P2;Temp;Humidity;BMP_temperature;BMP_pressure;BME280_temperature;BME280_humidity;BME280_pressure;Samples;Min_cycle;Max_cycle;Signal;HPM_P1;HPM_P2
2023/09/01 15:56:29;;;;;;;4.88;2.60;;;23.30;1.00;;;;;;6132750;22;1321055;-85
2023/09/01 15:58:55;;;;;;;9.75;3.10;;;23.10;1.00;;;;;;6135783;23;20472;-87
2023/09/01 16:01:21;;;;;;;4.47;2.50;;;23.20;1.00;;;;;;6110855;23;20021;-86
2023/09/01 16:03:46;;;;;;;6.80;2.60;;;23.40;1.00;;;;;;6135340;23;20500;-86
2023/09/01 16:06:12;;;;;;;3.55;2.63;;;22.90;1.00;;;;;;6110710;23;20028;-87
2023/09/01 16:08:38;;;;;;;4.63;2.60;;;23.10;1.00;;;;;;6110794;23;20017;-86
2023/09/01 16:11:04;;;;;;;5.15;2.42;;;23.20;1.00;;;;;;6110640;23;20021;-85
2023/09/01 16:13:30;;;;;;;5.82;3.10;;;23.20;1.00;;;;;;6159443;23;20020;-86
2023/09/01 16:15:55;;;;;;;6.13;2.65;;;22.60;1.00;;;;;;6111170;23;20445;-86
2023/09/01 16:18:21;;;;;;;3.47;2.53;;;22.90;1.00;;;;;;6135737;23;20017;-86
2023/09/01 16:20:47;;;;;;;4.53;2.45;;;22.80;1.00;;;;;;6135081;23;20017;-87
2023/09/01 16:23:13;;;;;;;7.57;3.17;;;22.50;1.00;;;;;;6110258;23;20044;-87
2023/09/01 16:25:39;;;;;;;4.70;2.90;;;22.80;1.00;;;;;;6133986;23;20024;-87
2023/09/01 16:28:05;;;;;;;7.03;3.08;;;22.80;1.00;;;;;;6157170;23;20014;-86
2023/09/01 16:30:32;;;;;;;4.80;2.53;;;22.60;1.00;;;;;;6132836;23;20024;-87
2023/09/01 16:32:59;;;;;;;4.53;2.63;;;22.90;1.00;;;;;;6133074;23;20017;-86
2023/09/01 16:35:25;;;;;;;2.60;2.40;;;22.30;1.00;;;;;;6084998;23;20457;-87
2023/09/01 16:37:51;;;;;;;4.95;2.88;;;22.60;1.00;;;;;;6158422;23;20013;-86
2023/09/01 16:40:17;;;;;;;6.18;3.42;;;22.50;1.00;;;;;;6132587;23;20225;-86
2023/09/01 16:42:44;;;;;;;6.95;3.75;;;22.10;1.00;;;;;;6111205;23;20438;-85
2023/09/01 16:45:11;;;;;;;12.00;4.55;;;22.20;1.00;;;;;;6135564;23;20028;-85
2023/09/01 16:47:37;;;;;;;5.82;4.00;;;21.90;1.00;;;;;;6186054;23;20023;-85
2023/09/01 16:50:05;;;;;;;5.53;4.00;;;22.00;1.00;;;;;;6160228;23;20044;-86
2023/09/01 16:52:31;;;;;;;6.10;3.47;;;;;;;;;;6161921;23;20028;-85
2023/09/01 16:54:57;;;;;;;11.23;3.92;;;21.40;1.00;;;;;;6166221;23;20056;-87
2023/09/01 16:57:23;;;;;;;8.70;4.00;;;;;;;;;;6167464;23;20351;-86
2023/09/01 16:59:49;;;;;;;6.47;4.07;;;;;;;;;;6130955;23;20061;-86
2023/09/01 17:02:15;;;;;;;4.93;4.00;;;;;;;;;;6105493;23;20128;-84
2023/09/01 17:04:41;;;;;;;9.43;4.00;;;21.40;1.00;;;;;;6129311;23;20017;-85
2023/09/01 17:07:07;;;;;;;10.35;3.97;;;;;;;;;;6129703;23;20105;-87
2023/09/01 17:09:33;;;;;;;5.63;3.67;;;;;;;;;;6105338;23;20040;-85
2023/09/01 17:12:00;;;;;;;6.35;3.38;;;;;;;;;;6129467;23;20018;-85
2023/09/01 17:14:29;;;;;;;4.55;3.42;;;20.60;1.00;;;;;;6155851;23;20018;-85
2023/09/01 17:16:55;;;;;;;3.50;3.20;;;;;;;;;;6106444;23;20029;-87
2023/09/01 17:19:21;;;;;;;5.57;3.55;;;;;;;;;;6131128;23;20049;-85
2023/09/01 17:21:47;;;;;;;5.20;3.78;;;;;;;;;;6105588;23;20021;-85
2023/09/01 17:24:14;;;;;;;7.82;3.47;;;;;;;;;;6105047;23;20407;-86
2023/09/01 17:26:39;;;;;;;6.40;3.55;;;20.40;1.00;;;;;;6129493;23;20053;-85
2023/09/01 17:29:05;;;;;;;12.02;3.65;;;20.30;1.00;;;;;;6105226;23;20024;-86
2023/09/01 17:31:31;;;;;;;5.30;3.20;;;;;;;;;;6105236;23;20420;-85
2023/09/01 17:33:57;;;;;;;6.95;3.85;;;;;;;;;;6129625;23;20014;-85
2023/09/01 17:36:24;;;;;;;7.45;3.78;;;;;;;;;;6105015;23;20144;-86
2023/09/01 17:38:50;;;;;;;4.70;3.33;;;;;;;;;;6105159;23;20023;-86
2023/09/01 17:41:35;;;;;;;8.10;3.63;;;19.90;1.00;;;;;;6105056;23;20029;-85
2023/09/01 17:44:02;;;;;;;5.47;3.63;;;;;;;;;;6129186;23;20017;-85
2023/09/01 17:46:29;;;;;;;6.00;4.25;;;19.70;1.00;;;;;;6129023;23;20050;-86
2023/09/01 17:48:55;;;;;;;8.50;3.95;;;;;;;;;;6105034;23;20060;-85
2023/09/01 17:51:21;;;;;;;3.70;3.03;;;;;;;;;;6155299;23;20516;-85
2023/09/01 17:53:47;;;;;;;3.80;3.08;;;;;;;;;;6154652;23;20450;-86
2023/09/01 17:56:13;;;;;;;4.40;3.25;;;;;;;;;;6104718;23;20076;-85
2023/09/01 17:58:39;;;;;;;3.33;2.60;;;19.50;1.00;;;;;;6112305;23;20025;-85
2023/09/01 18:01:12;;;;;;;3.03;2.72;;;;;;;;;;6100276;23;20022;-85
2023/09/01 18:03:39;;;;;;;4.32;2.72;;;19.40;1.00;;;;;;6100150;23;20018;-85
2023/09/01 18:06:06;;;;;;;7.38;3.22;;;19.10;1.00;;;;;;6100353;23;20442;-86
2023/09/01 18:08:33;;;;;;;3.67;2.88;;;;;;;;;;6100100;23;20025;-85
2023/09/01 18:10:59;;;;;;;7.43;2.78;;;;;;;;;;6075772;23;20018;-84
2023/09/01 18:13:28;;;;;;;4.35;3.30;;;18.90;1.00;;;;;;6051835;23;20097;-85
2023/09/01 18:15:56;;;;;;;7.65;2.85;;;;;;;;;;6052868;23;20346;-85
2023/09/01 18:18:22;;;;;;;4.07;2.58;;;;;;;;;;6077544;23;20521;-87
2023/09/01 18:20:51;;;;;;;3.28;2.50;;;18.60;1.00;;;;;;6126219;23;20017;-86
2023/09/01 18:23:19;;;;;;;4.88;2.97;;;18.60;1.00;;;;;;6052092;23;20458;-85
2023/09/01 18:25:45;;;;;;;3.50;2.75;;;;;;;;;;6125844;23;20125;-85
2023/09/01 18:28:15;;;;;;;4.28;2.90;;;18.50;1.00;;;;;;6075328;23;20037;-85
2023/09/01 18:30:42;;;;;;;4.05;2.75;;;18.50;1.00;;;;;;6126035;23;20014;-86
2023/09/01 18:33:10;;;;;;;4.65;2.70;;;18.20;1.00;;;;;;6099638;23;20014;-85
2023/09/01 18:35:36;;;;;;;5.93;3.33;;;;;;;;;;6076426;23;20022;-86
2023/09/01 18:38:11;;;;;;;3.67;2.47;;;18.30;1.00;;;;;;6099596;23;20017;-84
2023/09/01 18:40:37;;;;;;;3.35;3.00;;;;;;;;;;6125847;23;20046;-86
2023/09/01 18:43:03;;;;;;;2.58;2.38;;;;;;;;;;6099825;23;20022;-85
2023/09/01 18:45:30;;;;;;;5.95;2.80;;;;;;;;;;6075496;23;20087;-85
2023/09/01 18:47:56;;;;;;;3.70;3.05;;;;;;;;;;6075614;23;20018;-85
2023/09/01 18:50:22;;;;;;;8.60;3.70;;;;;;;;;;6100254;23;20050;-87
2023/09/01 18:52:55;;;;;;;3.58;3.03;;;17.70;1.00;;;;;;6052520;23;20036;-87
2023/09/01 18:55:22;;;;;;;5.20;3.00;;;17.70;1.00;;;;;;6125646;23;20022;-84
2023/09/01 18:57:49;;;;;;;3.88;3.47;;;;;;;;;;6082053;23;20253;-86
2023/09/01 19:00:26;;;;;;;4.05;3.20;;;17.40;1.00;;;;;;6104721;23;20026;-85
2023/09/01 19:02:52;;;;;;;7.20;3.53;;;;;;;;;;6105213;23;20025;-85
2023/09/01 19:05:26;;;;;;;4.65;3.20;;;17.40;1.00;;;;;;6128840;23;20024;-86
2023/09/01 19:07:52;;;;;;;6.07;3.30;;;;;;;;;;6104832;23;20117;-86
2023/09/01 19:10:20;;;;;;;3.92;3.17;;;17.40;1.00;;;;;;6154830;23;20039;-85
2023/09/01 19:12:51;;;;;;;8.50;3.58;;;17.20;1.00;;;;;;6104791;23;20093;-85
2023/09/01 19:15:17;;;;;;;8.05;4.18;;;;;;;;;;6128893;23;20060;-85
2023/09/01 19:17:43;;;;;;;4.50;3.55;;;;;;;;;;6129057;23;20044;-85
2023/09/01 19:20:24;;;;;;;6.32;3.20;;;17.10;1.00;;;;;;6104518;23;20022;-84
2023/09/01 19:22:53;;;;;;;4.75;3.25;;;17.30;1.00;;;;;;6104977;23;20100;-84
2023/09/01 19:25:20;;;;;;;7.50;3.40;;;;;;;;;;6104147;23;20022;-85
2023/09/01 19:27:49;;;;;;;5.95;3.15;;;;;;;;;;6104779;23;20024;-84
2023/09/01 19:30:18;;;;;;;6.18;3.08;;;16.90;1.00;;;;;;6128225;23;20018;-86
2023/09/01 19:32:46;;;;;;;3.35;3.05;;;;;;;;;;6104749;23;20108;-84
2023/09/01 19:35:19;;;;;;;6.63;3.78;;;16.70;1.00;;;;;;6105412;23;20026;-86
2023/09/01 19:37:54;;;;;;;5.03;3.30;;;16.50;1.00;;;;;;6128615;23;20017;-85
2023/09/01 19:40:23;;;;;;;4.25;3.10;;;;;;;;;;6104383;23;20053;-84
2023/09/01 19:43:06;;;;;;;3.95;3.58;;;16.40;1.00;;;;;;6153435;23;20025;-85
2023/09/01 19:45:36;;;;;;;6.43;3.17;;;16.30;1.00;;;;;;6129095;23;20347;-86
2023/09/01 19:48:03;;;;;;;6.95;4.15;;;16.40;1.00;;;;;;6104296;23;20093;-83
2023/09/01 19:50:32;;;;;;;6.22;3.85;;;16.30;1.00;;;;;;6104751;23;20342;-85
2023/09/01 19:53:18;;;;;;;6.55;3.55;;;16.30;1.00;;;;;;6128298;23;20346;-86
2023/09/01 19:55:44;;;;;;;9.77;3.92;;;;;;;;;;6104121;23;20028;-86
2023/09/01 19:58:13;;;;;;;4.10;3.58;;;16.20;1.00;;;;;;6121049;23;20316;-86
2023/09/01 20:00:40;;;;;;;5.40;4.13;;;16.20;1.00;;;;;;6075124;23;20081;-85
2023/09/01 20:03:08;;;;;;;6.10;3.95;;;16.40;1.00;;;;;;6098982;23;20033;-86
2023/09/01 20:05:36;;;;;;;7.13;3.40;;;16.10;1.00;;;;;;6098912;23;20505;-85
2023/09/01 20:08:03;;;;;;;3.67;3.25;;;;;;;;;;6074915;23;20757;-85
2023/09/01 20:10:36;;;;;;;7.57;3.80;;;;;;;;;;6075556;23;20025;-86
2023/09/01 20:13:06;;;;;;;4.35;3.95;;;16.10;1.00;;;;;;6075272;23;20351;-86
2023/09/01 20:15:37;;;;;;;6.43;4.25;;;16.00;1.00;;;;;;6075353;23;20085;-85
2023/09/01 20:18:05;;;;;;;4.78;3.53;;;16.10;1.00;;;;;;6100445;23;20025;-84
2023/09/01 20:20:31;;;;;;;7.60;4.32;;;;;;;;;;6077399;23;20021;-84
2023/09/01 20:22:57;;;;;;;5.28;4.00;;;;;;;;;;6101217;23;20386;-84
2023/09/01 20:25:24;;;;;;;6.15;4.45;;;;;;;;;;6076660;23;20025;-85
2023/09/01 20:27:53;;;;;;;5.28;4.20;;;;;;;;;;6100791;23;20018;-84
2023/09/01 20:30:19;;;;;;;5.13;4.40;;;;;;;;;;6076916;23;20638;-84
2023/09/01 20:32:45;;;;;;;4.75;3.92;;;;;;;;;;6101648;23;20101;-85
2023/09/01 20:35:11;;;;;;;5.40;3.80;;;;;;;;;;6077102;23;20025;-86
2023/09/01 20:37:40;;;;;;;6.63;3.80;;;;;;;;;;6100740;23;20049;-86
2023/09/01 20:40:07;;;;;;;5.97;4.28;;;;;;;;;;6092693;23;20025;-86
2023/09/01 20:42:36;;;;;;;5.80;3.75;;;;;;;;;;6117643;23;20061;-85
2023/09/01 20:45:06;;;;;;;4.63;4.05;;;;;;;;;;6066773;23;20124;-84
2023/09/01 20:47:32;;;;;;;5.53;3.78;;;;;;;;;;6116442;23;20145;-86
2023/09/01 20:50:05;;;;;;;8.15;4.85;;;;;;;;;;6121565;23;20022;-84
2023/09/01 20:52:39;;;;;;;6.25;4.38;;;;;;;;;;6053508;23;20022;-84
2023/09/01 20:55:06;;;;;;;5.47;4.70;;;;;;;;;;6100224;23;20022;-85
2023/09/01 20:57:46;;;;;;;6.47;4.28;;;15.50;1.00;;;;;;6099682;23;20109;-84
2023/09/01 21:00:15;;;;;;;5.50;4.22;;;15.40;1.00;;;;;;6099984;23;20033;-84
2023/09/01 21:02:42;;;;;;;5.53;4.30;;;;;;;;;;6076231;23;20100;-83
2023/09/01 21:05:09;;;;;;;7.45;4.85;;;15.40;1.00;;;;;;6100485;23;20025;-85
2023/09/01 21:07:37;;;;;;;5.15;4.53;;;15.50;1.00;;;;;;6076304;23;20014;-84
2023/09/01 21:10:03;;;;;;;7.25;4.50;;;;;;;;;;6076226;23;20018;-83
2023/09/01 21:12:30;;;;;;;8.05;5.30;;;;;;;;;;6076094;23;20474;-84
2023/09/01 21:14:56;;;;;;;7.95;4.72;;;;;;;;;;6076243;23;20474;-84
2023/09/01 21:17:23;;;;;;;6.68;4.90;;;15.40;1.00;;;;;;6076341;23;20014;-83
2023/09/01 21:19:51;;;;;;;7.03;4.25;;;;;;;;;;6100468;23;20050;-82
2023/09/01 21:22:18;;;;;;;5.45;3.97;;;;;;;;;;6076248;23;20022;-83
2023/09/01 21:24:44;;;;;;;8.05;4.18;;;;;;;;;;6099548;23;20029;-83
2023/09/01 21:27:10;;;;;;;7.35;4.80;;;;;;;;;;6102404;23;20022;-83
2023/09/01 21:29:39;;;;;;;5.70;3.92;;;;;;;;;;6077719;23;20017;-84
2023/09/01 21:32:06;;;;;;;9.88;3.90;;;;;;;;;;6101644;23;20021;-83
2023/09/01 21:34:32;;;;;;;5.55;4.00;;;;;;;;;;6076417;23;20018;-82
2023/09/01 21:36:58;;;;;;;4.88;4.30;;;;;;;;;;6076831;23;20049;-85
2023/09/01 21:39:24;;;;;;;4.75;3.97;;;;;;;;;;6077145;23;20077;-84
2023/09/01 21:41:50;;;;;;;4.97;4.40;;;;;;;;;;6051762;23;20041;-84
2023/09/01 21:44:17;;;;;;;5.45;4.72;;;;;;;;;;6099986;23;20157;-83
2023/09/01 21:47:02;;;;;;;5.32;4.65;;;;;;;;;;6104028;23;20068;-84
2023/09/01 21:49:28;;;;;;;5.85;4.53;;;;;;;;;;6052514;23;20045;-84
2023/09/01 21:51:55;;;;;;;5.03;4.40;;;;;;;;;;6076327;23;20018;-83
2023/09/01 21:54:21;;;;;;;6.97;4.70;;;;;;;;;;6075603;23;20014;-84
2023/09/01 21:56:47;;;;;;;5.65;4.35;;;;;;;;;;6051834;23;20014;-84
2023/09/01 21:59:13;;;;;;;7.05;4.47;;;;;;;;;;6054387;23;20347;-84
2023/09/01 22:01:39;;;;;;;5.90;4.53;;;;;;;;;;6075288;23;20087;-83
2023/09/01 22:04:05;;;;;;;5.63;4.55;;;;;;;;;;6075640;23;20018;-84
2023/09/01 22:06:31;;;;;;;6.78;4.82;;;;;;;;;;6083988;23;20026;-84
2023/09/01 22:08:58;;;;;;;5.57;5.05;;;;;;;;;;6058094;23;20037;-85
2023/09/01 22:11:24;;;;;;;4.90;4.18;;;;;;;;;;6080651;23;20465;-86
2023/09/01 22:13:50;;;;;;;4.82;4.13;;;;;;;;;;6081489;23;20022;-85
2023/09/01 22:16:17;;;;;;;6.72;4.85;;;;;;;;;;6058158;23;20018;-85
2023/09/01 22:18:43;;;;;;;5.40;4.28;;;;;;;;;;6080445;23;20033;-84
2023/09/01 22:21:09;;;;;;;6.65;5.30;;;;;;;;;;6054299;23;20018;-84
2023/09/01 22:23:36;;;;;;;6.28;4.30;;;;;;;;;;6055356;23;20022;-85
2023/09/01 22:26:02;;;;;;;6.00;4.82;;;;;;;;;;6057470;23;20021;-86
2023/09/01 22:28:28;;;;;;;7.35;5.57;;;14.20;1.00;;;;;;6058255;23;20087;-86
2023/09/01 22:30:55;;;;;;;7.10;5.65;;;;;;;;;;6107549;23;20351;-86
2023/09/01 22:33:21;;;;;;;8.15;5.50;;;;;;;;;;6062195;23;20123;-85
2023/09/01 22:35:47;;;;;;;6.07;5.03;;;;;;;;;;6076331;23;20022;-87
2023/09/01 22:38:16;;;;;;;5.80;5.20;;;13.90;1.00;;;;;;6052728;23;20022;-90
2023/09/01 22:40:44;;;;;;;6.35;5.20;;;;;;;;;;6076379;23;20395;-83
2023/09/01 22:43:10;;;;;;;5.95;4.72;;;;;;;;;;6076550;23;20013;-84
2023/09/01 22:45:36;;;;;;;5.72;5.05;;;;;;;;;;6052643;23;20018;-86
2023/09/01 22:48:03;;;;;;;5.78;4.50;;;;;;;;;;6077762;23;20024;-89
2023/09/01 22:50:29;;;;;;;5.30;3.97;;;;;;;;;;6055448;23;20022;-84
2023/09/01 22:52:55;;;;;;;5.45;4.43;;;;;;;;;;6085920;23;20041;-83
2023/09/01 22:55:27;;;;;;;7.03;4.95;;;;;;;;;;6060499;23;20029;-84
2023/09/01 22:57:53;;;;;;;5.63;4.80;;;;;;;;;;6109508;23;20025;-83
2023/09/01 23:00:19;;;;;;;4.07;3.60;;;;;;;;;;6115492;23;20405;-83
2023/09/01 23:02:45;;;;;;;4.18;3.78;;;;;;;;;;6112761;23;20018;-84
2023/09/01 23:05:11;;;;;;;5.28;3.72;;;;;;;;;;6109543;23;20060;-85
2023/09/01 23:07:37;;;;;;;5.22;4.00;;;;;;;;;;6132566;23;20017;-90
2023/09/01 23:10:04;;;;;;;3.85;3.47;;;;;;;;;;6134702;23;20025;-88
2023/09/01 23:12:30;;;;;;;6.28;4.25;;;;;;;;;;6133202;23;20018;-88
2023/09/01 23:14:56;;;;;;;4.57;4.18;;;;;;;;;;6109957;23;20094;-84
2023/09/01 23:17:22;;;;;;;4.57;3.72;;;;;;;;;;6111361;23;20096;-85
2023/09/01 23:19:48;;;;;;;9.18;4.13;;;;;;;;;;6108551;23;20076;-87
2023/09/01 23:22:14;;;;;;;4.45;4.05;;;;;;;;;;6109403;23;20028;-85
2023/09/01 23:24:40;;;;;;;5.13;3.95;;;;;;;;;;6138479;23;20069;-85
2023/09/01 23:27:07;;;;;;;5.05;4.03;;;;;;;;;;6138803;23;20018;-85
2023/09/01 23:29:33;;;;;;;4.80;3.88;;;;;;;;;;6139278;23;20017;-85
2023/09/01 23:32:05;;;;;;;6.10;3.92;;;;;;;;;;6138617;23;20021;-85
2023/09/01 23:34:32;;;;;;;4.57;4.00;;;;;;;;;;6165778;23;20021;-86
2023/09/01 23:36:59;;;;;;;5.70;4.53;;;;;;;;;;6167251;23;20022;-85
2023/09/01 23:39:25;;;;;;;5.53;4.47;;;;;;;;;;6118998;23;20045;-85
2023/09/01 23:41:51;;;;;;;7.00;4.22;;;;;;;;;;6141137;23;20024;-85
2023/09/01 23:44:17;;;;;;;5.05;4.55;;;;;;;;;;6114188;23;20018;-84
2023/09/01 23:46:43;;;;;;;7.30;5.22;;;;;;;;;;6163594;23;20101;-85
2023/09/01 23:49:09;;;;;;;9.82;5.88;;;;;;;;;;6137412;23;20343;-85
2023/09/01 23:51:35;;;;;;;11.55;6.15;;;;;;;;;;6163437;23;20024;-84
2023/09/01 23:54:01;;;;;;;6.93;5.75;;;;;;;;;;6164068;23;20383;-84
2023/09/01 23:56:28;;;;;;;8.02;5.55;;;;;;;;;;6137324;23;20024;-84
2023/09/01 23:58:54;;;;;;;8.52;5.68;;;;;;;;;;6163295;23;20044;-85
